West Stockholm, NY (13696)

10:03 AM EST on February 06, 2016 (GMT -0500)
May Road | | Change Station
CLOSE
Current Station
Personal Weather Station
Location: Potsdam, NY
Elevation: 460 ft
Nearby Weather Stations

Elev 460 ft 44.71 °N, 74.95 °W | Updated 3 minutes ago

Overcast
Overcast
30.8 °F
Feels Like 27 °F
N
4.0
Wind Variable Wind from WSW
Gusts 10.0 mph

Today
High -- | Low -- °F
--% Chance of Precip.
Yesterday
High -- | Low -- °F
Precip. -- in
Pressure 30.19 in
Visibility 1.5 miles
Clouds Few 1100 ft
Mostly Cloudy 2800 ft
Overcast 3700 ft
Windchill 27 °F
Dew Point 27 °F
Humidity 87%
Rainfall 0.00 in
Snow Depth Not available.
7:13 AM 5:14 PM
Waning Crescent, 5% visible
SPECI KMSS 061500Z AUTO 22009KT 1 1/2SM -SN FEW011 BKN028 OVC037 M01/M03 A3019 RMK AO2 P0000 T10061033
Pressure 30.19 in
Visibility 1.5 miles
Clouds Few 1100 ft
Mostly Cloudy 2800 ft
Overcast 3700 ft
Windchill 27 °F
Dew Point 27 °F
Humidity 87%
Rainfall 0.00 in
Snow Depth Not available.
7:13 AM 5:14 PM
Waning Crescent, 5% visible
SPECI KMSS 061500Z AUTO 22009KT 1 1/2SM -SN FEW011 BKN028 OVC037 M01/M03 A3019 RMK AO2 P0000 T10061033

10-Day Weather Forecast

Almanac

Astronomy

Feb. 06, 2016 Rise Set
Actual Time
Civil Twilight
Nautical Twilight
Astronomical Twilight
Moon
Length of Visible Light
Length of Day
Tomorrow will be .
, % of the Moon is Illuminated

Today's Extremes

State Highs State Lows

Community

WunderPhotos

Upload Photos

1,890,984 photos uploaded!

WunderBlog® & News

Nearby

Air Quality

  Air Quality AQ Index Pollutant
Not available.

Snow Depth

Station Depth Elevation

Earthquake Activity

City Distance Mag. Time & Date
Minimum magnitude displayed is 2.5.

Coastal Water Temperatures

Place Temperature

Stations

Nearby Weather Stations

Station Location Temp. Windchill Dew Point Humidity Wind Precip. Elev Updated Type
                   

Watches & Warnings

There are currently no watches in effect.